Time;durP1;ratioP1;P1;durP2;ratioP2;P2;SDS_P1;SDS_P2;PMS_P1;PMS_P2;Temp;Humidity;BMP_temperature;BMP_pressure;BME280_temperature;BME280_humidity;BME280_pressure;Samples;Min_cycle;Max_cycle;Signal;HPM_P1;HPM_P2
2021/11/16 00:00:32;;;;;;;35.60;22.60;;;7.10;99.90;;;;;;4992905;28;20427;-66
2021/11/16 00:02:57;;;;;;;36.83;21.67;;;7.00;99.90;;;;;;4992711;28;20473;-66
2021/11/16 00:05:23;;;;;;;33.97;21.27;;;7.00;99.90;;;;;;4992607;28;20430;-65
2021/11/16 00:07:51;;;;;;;32.87;22.20;;;7.10;99.90;;;;;;4992484;28;20703;-66
2021/11/16 00:10:17;;;;;;;36.17;23.27;;;7.20;99.90;;;;;;4992624;28;20192;-66
2021/11/16 00:12:43;;;;;;;33.40;21.80;;;7.30;99.90;;;;;;4992430;28;20517;-66
2021/11/16 00:15:09;;;;;;;32.03;20.60;;;7.30;99.90;;;;;;4992773;28;20180;-66
2021/11/16 00:17:34;;;;;;;39.20;23.70;;;7.20;99.90;;;;;;4992364;28;20703;-66
2021/11/16 00:20:02;;;;;;;35.53;24.70;;;7.30;99.90;;;;;;4992317;28;20550;-66
2021/11/16 00:22:28;;;;;;;33.47;22.73;;;7.30;99.90;;;;;;4992556;28;20183;-65
2021/11/16 00:27:38;;;;;;;40.70;22.97;;;7.50;99.90;;;;;;4998043;28;20517;-65
2021/11/16 00:30:05;;;;;;;34.13;21.00;;;7.50;99.90;;;;;;4998154;28;20991;-66
2021/11/16 00:32:31;;;;;;;35.70;23.13;;;7.50;99.90;;;;;;4993523;28;20290;-66
2021/11/16 00:34:57;;;;;;;32.10;24.07;;;7.60;99.90;;;;;;4993744;28;20573;-65
2021/11/16 00:37:26;;;;;;;34.13;22.30;;;7.60;99.90;;;;;;4996846;28;20183;-66
2021/11/16 00:39:58;;;;;;;35.33;24.07;;;7.60;99.90;;;;;;4997901;28;20203;-66
2021/11/16 00:42:24;;;;;;;33.10;21.67;;;7.60;99.90;;;;;;4994304;28;20430;-66
2021/11/16 00:44:49;;;;;;;36.97;24.17;;;7.50;99.90;;;;;;4992233;28;20993;-66
2021/11/16 00:47:15;;;;;;;41.33;24.50;;;7.40;99.90;;;;;;4991780;28;20525;-64
2021/11/16 00:49:41;;;;;;;32.87;23.07;;;7.30;99.90;;;;;;4989460;28;20587;-66
2021/11/16 00:52:07;;;;;;;35.73;22.73;;;7.20;99.90;;;;;;4991184;28;20458;-65
2021/11/16 00:54:33;;;;;;;34.50;23.00;;;7.10;99.90;;;;;;4996493;28;20178;-66
2021/11/16 00:56:59;;;;;;;33.30;21.30;;;7.10;99.90;;;;;;5000741;28;20830;-64
2021/11/16 00:59:25;;;;;;;33.03;22.47;;;7.20;99.90;;;;;;4999948;28;20201;-65
2021/11/16 01:01:50;;;;;;;30.10;21.30;;;7.30;99.90;;;;;;4993174;28;20981;-64
2021/11/16 01:04:16;;;;;;;30.73;21.40;;;7.40;99.90;;;;;;4992324;28;20175;-64
2021/11/16 01:06:42;;;;;;;32.43;22.07;;;7.40;99.90;;;;;;4982242;28;20211;-64
2021/11/16 01:09:08;;;;;;;30.10;22.07;;;7.40;99.90;;;;;;4992152;28;20450;-64
2021/11/16 01:11:34;;;;;;;31.77;21.80;;;7.40;99.90;;;;;;4995819;28;20440;-65
2021/11/16 01:13:59;;;;;;;29.47;20.40;;;7.50;99.90;;;;;;4992662;28;20206;-66
2021/11/16 01:16:25;;;;;;;33.43;21.93;;;7.40;99.90;;;;;;4997382;28;20187;-64
2021/11/16 01:18:51;;;;;;;32.00;21.70;;;7.20;99.90;;;;;;4995431;28;20571;-65
2021/11/16 01:21:16;;;;;;;32.77;21.20;;;7.10;99.90;;;;;;4992385;28;20237;-64
2021/11/16 01:23:42;;;;;;;31.20;21.67;;;7.10;99.90;;;;;;4984386;28;20191;-65
2021/11/16 01:26:08;;;;;;;25.03;18.73;;;7.10;99.90;;;;;;4998481;28;20179;-64
2021/11/16 01:28:34;;;;;;;32.10;21.60;;;7.20;99.90;;;;;;4994901;28;20203;-64
2021/11/16 01:31:03;;;;;;;30.07;20.97;;;7.10;99.90;;;;;;4995559;28;20481;-65
2021/11/16 01:33:44;;;;;;;38.60;22.90;;;7.10;99.90;;;;;;4991866;28;20363;-65
2021/11/16 01:36:14;;;;;;;28.47;20.37;;;7.20;99.90;;;;;;4994042;28;20784;-65
2021/11/16 01:38:41;;;;;;;33.40;21.87;;;7.10;99.90;;;;;;4992214;28;20498;-64
2021/11/16 01:41:07;;;;;;;30.07;20.20;;;7.10;99.90;;;;;;4998570;28;20509;-64
2021/11/16 01:43:33;;;;;;;32.93;20.83;;;7.10;99.90;;;;;;4997093;28;20517;-64
2021/11/16 01:46:02;;;;;;;34.07;24.20;;;7.00;99.90;;;;;;5003828;28;20860;-64
2021/11/16 01:48:29;;;;;;;32.90;21.40;;;7.00;99.90;;;;;;4984254;28;20458;-65
2021/11/16 01:50:55;;;;;;;34.40;20.27;;;7.00;99.90;;;;;;4994020;28;20513;-64
2021/11/16 01:53:20;;;;;;;34.13;20.70;;;6.90;99.90;;;;;;4996285;28;20550;-65
2021/11/16 01:55:46;;;;;;;33.23;20.90;;;6.90;99.90;;;;;;4993927;28;20175;-65
2021/11/16 01:58:12;;;;;;;36.87;22.90;;;6.80;99.90;;;;;;4996966;28;20739;-64
2021/11/16 02:00:42;;;;;;;35.70;22.60;;;6.80;99.90;;;;;;4995301;28;20171;-64
2021/11/16 02:03:11;;;;;;;34.00;22.70;;;6.80;99.90;;;;;;4995324;28;20262;-65
2021/11/16 02:06:12;;;;;;;33.23;22.70;;;6.80;99.90;;;;;;5000442;28;20461;-64
2021/11/16 02:08:38;;;;;;;31.20;21.43;;;6.90;99.90;;;;;;4994454;28;20509;-64
2021/11/16 02:11:04;;;;;;;34.23;21.27;;;6.90;99.90;;;;;;4995123;28;20473;-64
2021/11/16 02:13:29;;;;;;;34.50;22.60;;;6.90;99.90;;;;;;4996254;28;20485;-64
2021/11/16 02:15:55;;;;;;;35.83;22.27;;;6.90;99.90;;;;;;4995158;28;20187;-64
2021/11/16 02:18:21;;;;;;;29.63;21.23;;;6.80;99.90;;;;;;4995427;28;20178;-64
2021/11/16 02:20:49;;;;;;;37.37;24.33;;;6.90;99.90;;;;;;4995161;28;20199;-63
2021/11/16 02:23:16;;;;;;;34.17;22.47;;;6.90;99.90;;;;;;4994753;28;20780;-66
2021/11/16 02:25:44;;;;;;;29.63;20.67;;;6.80;99.90;;;;;;4996491;28;20442;-64
2021/11/16 02:28:09;;;;;;;36.23;19.47;;;6.80;99.90;;;;;;4984092;28;20435;-64
2021/11/16 02:30:35;;;;;;;35.87;22.77;;;6.80;99.90;;;;;;4994354;28;21917;-66
2021/11/16 02:33:01;;;;;;;39.10;21.87;;;6.80;99.90;;;;;;4994530;28;20625;-63
2021/11/16 02:35:27;;;;;;;31.30;20.57;;;6.80;99.90;;;;;;4999001;28;20175;-64
2021/11/16 02:37:55;;;;;;;28.10;20.00;;;6.90;99.90;;;;;;5000443;28;20187;-64
2021/11/16 02:40:21;;;;;;;30.57;20.50;;;6.90;99.90;;;;;;4998788;28;20497;-64
2021/11/16 02:42:47;;;;;;;36.23;22.53;;;6.90;99.90;;;;;;4995468;28;20793;-63
2021/11/16 02:45:15;;;;;;;25.63;19.77;;;6.90;99.90;;;;;;4994667;28;20427;-64
2021/11/16 02:47:41;;;;;;;30.80;21.27;;;6.80;99.90;;;;;;4999603;28;20168;-64
2021/11/16 02:50:07;;;;;;;28.37;19.40;;;6.90;99.90;;;;;;5001228;28;20461;-64
2021/11/16 02:52:33;;;;;;;40.63;21.00;;;6.90;99.90;;;;;;4997734;28;20695;-64
2021/11/16 02:54:59;;;;;;;34.33;20.43;;;6.80;99.90;;;;;;4994970;28;20435;-64
2021/11/16 02:57:24;;;;;;;29.40;20.10;;;6.80;99.90;;;;;;4996162;28;20426;-64
2021/11/16 02:59:50;;;;;;;35.67;21.10;;;6.80;99.90;;;;;;4984988;28;20741;-66
2021/11/16 03:02:16;;;;;;;34.70;21.80;;;6.90;99.90;;;;;;4994671;28;20179;-63
2021/11/16 03:04:45;;;;;;;33.60;21.40;;;6.90;99.90;;;;;;5006311;28;20237;-66
2021/11/16 03:07:13;;;;;;;30.77;20.90;;;6.90;99.90;;;;;;4994085;28;20179;-66
2021/11/16 03:09:50;;;;;;;31.03;21.17;;;6.90;99.90;;;;;;4994555;28;20974;-64
2021/11/16 03:12:16;;;;;;;31.77;20.00;;;6.80;99.90;;;;;;4993519;28;20465;-63
2021/11/16 03:14:42;;;;;;;33.60;21.30;;;6.70;99.90;;;;;;4997870;28;20434;-63
2021/11/16 03:17:07;;;;;;;33.40;21.90;;;6.60;99.90;;;;;;4996272;28;20664;-63
2021/11/16 03:19:34;;;;;;;34.77;21.90;;;6.60;99.90;;;;;;5003414;28;20289;-63
2021/11/16 03:22:00;;;;;;;38.27;21.63;;;6.50;99.90;;;;;;4997936;28;20182;-66
2021/11/16 03:24:32;;;;;;;32.23;22.33;;;6.50;99.90;;;;;;4994361;28;20817;-64
2021/11/16 03:26:57;;;;;;;35.77;22.10;;;6.50;99.90;;;;;;4999048;28;20602;-66
2021/11/16 03:29:25;;;;;;;32.30;20.47;;;6.50;99.90;;;;;;5000669;28;20454;-65
2021/11/16 03:32:00;;;;;;;34.63;21.77;;;6.50;99.90;;;;;;4994069;28;20175;-64
2021/11/16 03:34:27;;;;;;;31.60;19.47;;;6.60;99.90;;;;;;5007522;28;20444;-66
2021/11/16 03:36:53;;;;;;;31.37;20.80;;;6.70;99.90;;;;;;4991108;28;20982;-66
2021/11/16 03:39:19;;;;;;;31.30;21.03;;;6.60;99.90;;;;;;4993146;28;20506;-66
2021/11/16 03:41:46;;;;;;;29.33;20.13;;;6.70;99.90;;;;;;4993160;28;20181;-66
2021/11/16 03:44:12;;;;;;;34.10;22.60;;;6.70;99.90;;;;;;4993523;28;21015;-66
2021/11/16 03:46:37;;;;;;;33.67;21.90;;;6.80;99.90;;;;;;5004840;28;20469;-66
2021/11/16 03:49:03;;;;;;;33.80;22.77;;;6.80;99.90;;;;;;5002692;28;20478;-66
2021/11/16 03:51:29;;;;;;;32.17;20.77;;;6.80;99.90;;;;;;4997041;28;20705;-65
2021/11/16 03:53:55;;;;;;;30.70;20.80;;;6.70;99.90;;;;;;5001562;28;20560;-66
2021/11/16 03:56:21;;;;;;;32.03;22.60;;;6.60;99.90;;;;;;4996498;28;20203;-65
2021/11/16 03:58:47;;;;;;;36.40;22.30;;;6.80;99.90;;;;;;4992695;28;20485;-66
2021/11/16 04:01:13;;;;;;;35.03;21.53;;;6.80;99.90;;;;;;4997768;28;20186;-66
2021/11/16 04:03:41;;;;;;;36.20;21.20;;;6.90;99.90;;;;;;4998560;28;20861;-66
2021/11/16 04:06:07;;;;;;;34.43;21.50;;;6.80;99.90;;;;;;5004958;28;20483;-65
2021/11/16 04:08:34;;;;;;;31.60;20.10;;;6.80;99.90;;;;;;4999676;28;20880;-66
2021/11/16 04:11:00;;;;;;;34.53;20.57;;;6.80;99.90;;;;;;5000735;28;20462;-65
2021/11/16 04:13:25;;;;;;;34.70;20.10;;;6.80;99.90;;;;;;5002578;28;20838;-66
2021/11/16 04:15:51;;;;;;;33.77;21.23;;;6.70;99.90;;;;;;5010593;28;20433;-66
2021/11/16 04:18:19;;;;;;;27.90;19.00;;;6.70;99.90;;;;;;4995729;28;20187;-65
2021/11/16 04:20:47;;;;;;;28.33;18.20;;;6.60;99.90;;;;;;4992971;28;20457;-66
2021/11/16 04:23:15;;;;;;;30.43;19.13;;;6.50;99.90;;;;;;4992745;28;20484;-66
2021/11/16 04:25:42;;;;;;;34.47;22.37;;;6.60;99.90;;;;;;4992663;28;20430;-66
2021/11/16 04:28:09;;;;;;;34.40;20.50;;;6.60;99.90;;;;;;4992273;28;20496;-65
2021/11/16 04:30:36;;;;;;;33.00;21.73;;;6.70;99.90;;;;;;4993595;28;20439;-66
2021/11/16 04:33:02;;;;;;;33.10;20.87;;;6.60;99.90;;;;;;4995157;28;20474;-66
2021/11/16 04:35:28;;;;;;;35.67;20.40;;;6.50;99.90;;;;;;4992532;28;20905;-65
2021/11/16 04:37:56;;;;;;;31.03;18.53;;;6.50;99.90;;;;;;4992038;28;20811;-66
2021/11/16 04:40:32;;;;;;;33.10;21.53;;;6.50;99.90;;;;;;4993020;28;20477;-65
2021/11/16 04:43:00;;;;;;;30.87;18.80;;;6.40;99.90;;;;;;5001067;28;20496;-65
2021/11/16 04:45:26;;;;;;;33.60;21.70;;;6.30;99.90;;;;;;4993466;28;20439;-66
2021/11/16 04:47:59;;;;;;;32.67;19.90;;;6.20;99.90;;;;;;4992098;28;20474;-65
2021/11/16 04:51:18;;;;;;;34.03;21.77;;;6.20;99.90;;;;;;4992465;28;20458;-65
2021/11/16 05:03:49;;;;;;;37.33;21.80;;;6.10;99.90;;;;;;4992517;28;20506;-65
2021/11/16 05:06:14;;;;;;;43.50;21.97;;;6.10;99.90;;;;;;4995395;28;20429;-65
2021/11/16 05:08:44;;;;;;;40.53;23.60;;;6.10;99.90;;;;;;4991932;28;20473;-65
2021/11/16 05:11:10;;;;;;;40.23;22.77;;;6.10;99.90;;;;;;4995094;28;20183;-65
2021/11/16 05:13:37;;;;;;;40.47;22.13;;;6.10;99.90;;;;;;5002174;28;20461;-66
2021/11/16 05:16:04;;;;;;;32.13;20.43;;;6.00;99.90;;;;;;4994859;28;20441;-65
2021/11/16 05:18:30;;;;;;;37.83;22.17;;;6.00;99.90;;;;;;4996353;28;20486;-66
2021/11/16 05:20:55;;;;;;;34.00;19.17;;;5.90;99.90;;;;;;4994055;28;20485;-66
2021/11/16 05:23:21;;;;;;;36.20;20.73;;;5.90;99.90;;;;;;4992224;28;20641;-65
2021/11/16 05:25:51;;;;;;;31.13;20.43;;;5.80;99.90;;;;;;4994937;28;20646;-66
2021/11/16 05:28:18;;;;;;;40.50;23.13;;;5.80;99.90;;;;;;4995734;28;20176;-65
2021/11/16 05:30:44;;;;;;;35.03;20.90;;;5.80;99.90;;;;;;4996296;28;20449;-66
2021/11/16 05:33:10;;;;;;;37.00;22.00;;;5.90;99.90;;;;;;4997750;28;20470;-66
2021/11/16 05:35:35;;;;;;;41.33;21.83;;;5.90;99.90;;;;;;4999496;28;20430;-66
2021/11/16 05:38:01;;;;;;;32.00;20.67;;;5.80;99.90;;;;;;4997705;28;20439;-65
2021/11/16 05:40:27;;;;;;;38.43;21.53;;;5.80;99.90;;;;;;4996052;28;20207;-66
2021/11/16 05:42:52;;;;;;;38.37;21.20;;;5.80;99.90;;;;;;4995599;28;20641;-66
2021/11/16 05:45:18;;;;;;;34.70;20.33;;;5.90;99.90;;;;;;4999040;28;20588;-66
2021/11/16 05:47:44;;;;;;;35.30;20.30;;;5.90;99.90;;;;;;4979278;28;20239;-66
2021/11/16 05:50:11;;;;;;;40.07;19.60;;;6.00;99.90;;;;;;5000210;28;20636;-65
2021/11/16 05:52:37;;;;;;;33.20;19.17;;;6.00;99.90;;;;;;4996484;28;20470;-66
2021/11/16 05:55:07;;;;;;;40.83;20.47;;;6.00;99.90;;;;;;4998648;28;20438;-66
2021/11/16 05:57:32;;;;;;;33.87;18.90;;;6.00;99.90;;;;;;4996617;28;20434;-65
2021/11/16 05:59:58;;;;;;;31.20;18.70;;;6.00;99.90;;;;;;4982243;28;20516;-66
2021/11/16 06:02:23;;;;;;;31.30;20.60;;;5.90;99.90;;;;;;4996005;28;20264;-65
2021/11/16 06:04:49;;;;;;;33.20;19.43;;;5.90;99.90;;;;;;5004548;28;20663;-65
2021/11/16 06:07:14;;;;;;;38.97;22.80;;;5.90;99.90;;;;;;4995002;28;20183;-65
2021/11/16 06:09:42;;;;;;;33.37;22.10;;;5.80;99.90;;;;;;4994779;28;20199;-66
2021/11/16 06:12:08;;;;;;;34.07;19.27;;;5.80;99.90;;;;;;4994858;28;20175;-66
2021/11/16 06:14:34;;;;;;;32.53;19.60;;;5.80;99.90;;;;;;4994841;28;20463;-66
2021/11/16 06:17:00;;;;;;;31.40;20.57;;;5.80;99.90;;;;;;4994861;28;20524;-66
2021/11/16 06:19:29;;;;;;;31.40;17.50;;;5.70;99.90;;;;;;4994576;28;20585;-66
2021/11/16 06:21:54;;;;;;;36.17;22.20;;;5.70;99.90;;;;;;4994650;28;20188;-66
2021/11/16 06:24:20;;;;;;;31.60;20.37;;;5.70;99.90;;;;;;4994584;28;21145;-65
2021/11/16 06:26:46;;;;;;;30.60;18.60;;;5.70;99.90;;;;;;4996165;28;20183;-65
2021/11/16 06:29:12;;;;;;;30.17;19.43;;;5.70;99.90;;;;;;5005420;28;20489;-65
2021/11/16 06:31:38;;;;;;;29.20;17.87;;;5.70;99.90;;;;;;5001077;28;20462;-66
2021/11/16 06:34:05;;;;;;;26.70;17.57;;;5.60;99.90;;;;;;4994241;28;20211;-66
2021/11/16 06:36:36;;;;;;;23.30;16.60;;;5.70;99.90;;;;;;4994500;28;20540;-65
2021/11/16 06:39:05;;;;;;;25.93;17.50;;;5.60;99.90;;;;;;4993932;28;20474;-65
2021/11/16 06:41:30;;;;;;;28.00;18.47;;;5.60;99.90;;;;;;4994199;28;20439;-66
2021/11/16 06:43:56;;;;;;;24.33;15.90;;;5.70;99.90;;;;;;4995087;28;20533;-66
2021/11/16 06:46:22;;;;;;;25.50;16.90;;;5.70;99.90;;;;;;5005864;28;20894;-65
2021/11/16 06:48:48;;;;;;;31.63;17.83;;;5.70;99.90;;;;;;4968926;28;20218;-66
2021/11/16 06:51:13;;;;;;;26.10;18.97;;;5.80;99.90;;;;;;4981375;28;20180;-66
2021/11/16 06:53:39;;;;;;;26.30;16.70;;;5.90;99.90;;;;;;5001173;28;20826;-66
2021/11/16 06:56:06;;;;;;;28.47;18.20;;;6.00;99.90;;;;;;5003501;28;20665;-66
2021/11/16 06:58:34;;;;;;;28.30;17.53;;;6.00;99.90;;;;;;4992896;28;20195;-66
2021/11/16 07:01:01;;;;;;;35.40;23.20;;;6.00;99.90;;;;;;5000400;28;20434;-66
2021/11/16 07:03:27;;;;;;;25.13;17.07;;;6.00;99.90;;;;;;5004367;28;20473;-65
2021/11/16 07:05:59;;;;;;;29.80;18.43;;;6.00;99.90;;;;;;5001831;28;20481;-66
2021/11/16 07:08:43;;;;;;;27.17;17.27;;;5.90;99.90;;;;;;4995071;28;20906;-66
2021/11/16 07:11:18;;;;;;;28.60;16.93;;;5.90;99.90;;;;;;4998506;28;20476;-65
2021/11/16 07:13:57;;;;;;;27.60;17.63;;;6.00;99.90;;;;;;4999626;28;20471;-66
2021/11/16 07:16:24;;;;;;;27.27;17.90;;;6.00;99.90;;;;;;4999123;28;20438;-65
2021/11/16 07:18:52;;;;;;;27.73;17.77;;;5.90;99.90;;;;;;4992175;28;20473;-66
2021/11/16 07:21:22;;;;;;;26.77;17.37;;;5.90;99.90;;;;;;4997512;28;20449;-66
2021/11/16 07:24:05;;;;;;;30.10;17.83;;;5.90;99.90;;;;;;4993682;28;20485;-65
2021/11/16 07:26:31;;;;;;;26.63;16.27;;;5.90;99.90;;;;;;4990818;28;20456;-65
2021/11/16 07:28:56;;;;;;;24.07;17.13;;;5.90;99.90;;;;;;4987689;28;20474;-65
2021/11/16 07:31:22;;;;;;;24.77;16.43;;;6.00;99.90;;;;;;4992758;28;20426;-66
2021/11/16 07:33:51;;;;;;;27.73;16.70;;;6.10;99.90;;;;;;4993049;28;20202;-65
2021/11/16 07:36:18;;;;;;;26.23;17.47;;;6.10;99.90;;;;;;4994144;28;20427;-66
2021/11/16 07:38:47;;;;;;;27.60;17.50;;;6.10;99.90;;;;;;4993825;28;21042;-65
2021/11/16 07:41:20;;;;;;;30.00;16.97;;;6.10;99.90;;;;;;4996665;28;20979;-66
2021/11/16 07:43:45;;;;;;;27.37;16.97;;;6.10;99.90;;;;;;4992322;28;20435;-65
2021/11/16 07:46:11;;;;;;;28.73;17.50;;;6.10;99.90;;;;;;4993036;28;20446;-65
2021/11/16 07:48:38;;;;;;;31.17;18.00;;;6.10;99.90;;;;;;4989088;28;20228;-66
2021/11/16 07:51:05;;;;;;;27.90;18.67;;;6.10;99.90;;;;;;4993672;28;20182;-66
2021/11/16 07:53:35;;;;;;;29.80;18.50;;;6.10;99.90;;;;;;4992963;28;20486;-66
2021/11/16 07:56:09;;;;;;;31.27;18.43;;;6.10;99.90;;;;;;4993395;28;20466;-66
2021/11/16 07:58:42;;;;;;;24.40;18.50;;;6.20;99.90;;;;;;4989104;28;21010;-66
2021/11/16 08:01:23;;;;;;;26.03;17.00;;;6.20;99.90;;;;;;4993382;28;20493;-66
2021/11/16 08:03:51;;;;;;;28.87;19.47;;;6.20;99.90;;;;;;4996533;28;20438;-66
2021/11/16 08:06:31;;;;;;;27.87;17.70;;;6.30;99.90;;;;;;4992899;28;20525;-66
2021/11/16 08:09:17;;;;;;;30.87;20.70;;;6.20;99.90;;;;;;4990523;28;20897;-66
2021/11/16 08:11:45;;;;;;;27.37;18.47;;;6.30;99.90;;;;;;4997138;28;20818;-65
2021/11/16 08:14:13;;;;;;;33.20;18.07;;;6.30;99.90;;;;;;4993660;28;20556;-65
2021/11/16 08:16:57;;;;;;;27.57;17.83;;;6.40;99.90;;;;;;4992296;28;20453;-66
2021/11/16 08:19:26;;;;;;;28.47;17.83;;;6.40;99.90;;;;;;4988584;28;20778;-65
2021/11/16 08:21:55;;;;;;;30.37;18.53;;;6.50;99.90;;;;;;4994200;28;20442;-66
2021/11/16 08:24:22;;;;;;;28.17;17.63;;;6.60;99.90;;;;;;4992271;28;20467;-66
2021/11/16 08:26:50;;;;;;;27.03;17.03;;;6.60;99.90;;;;;;4992840;28;20438;-66
2021/11/16 08:29:29;;;;;;;25.27;16.57;;;6.50;99.90;;;;;;4986486;28;20459;-65
2021/11/16 08:32:07;;;;;;;28.17;18.97;;;6.60;99.90;;;;;;4992387;28;20435;-66
2021/11/16 08:34:36;;;;;;;29.80;18.97;;;6.60;99.90;;;;;;4984552;28;20469;-65
2021/11/16 08:37:06;;;;;;;33.77;16.80;;;6.50;99.90;;;;;;4991910;28;20438;-66
2021/11/16 08:39:47;;;;;;;34.80;18.90;;;6.60;99.90;;;;;;4987915;28;20468;-66
2021/11/16 08:42:24;;;;;;;28.37;16.43;;;6.60;99.90;;;;;;4992265;28;20794;-65
2021/11/16 08:45:03;;;;;;;34.63;18.97;;;6.60;99.90;;;;;;4992308;28;20429;-66
2021/11/16 08:47:38;;;;;;;26.13;17.83;;;6.60;99.90;;;;;;4988815;28;21092;-65
2021/11/16 08:50:06;;;;;;;25.30;16.90;;;6.60;99.90;;;;;;4986178;28;20454;-68
2021/11/16 08:52:32;;;;;;;27.40;14.77;;;6.50;99.90;;;;;;4989057;28;20474;-65
2021/11/16 08:55:11;;;;;;;20.60;13.00;;;6.50;99.90;;;;;;4995617;28;20868;-65
2021/11/16 08:57:38;;;;;;;20.27;13.10;;;6.50;99.90;;;;;;4976112;28;20449;-66
2021/11/16 09:00:24;;;;;;;20.43;13.00;;;6.50;99.90;;;;;;4990117;28;20458;-66
2021/11/16 09:02:51;;;;;;;18.37;13.10;;;6.60;99.90;;;;;;4991563;28;20434;-65
2021/11/16 09:05:18;;;;;;;17.20;11.60;;;6.60;99.90;;;;;;4993990;28;21055;-65
2021/11/16 09:07:49;;;;;;;19.30;12.30;;;6.50;99.90;;;;;;4988705;28;20529;-65
2021/11/16 09:10:14;;;;;;;22.37;13.30;;;6.50;99.90;;;;;;4992665;28;20469;-65
2021/11/16 09:12:54;;;;;;;19.73;12.40;;;6.50;99.90;;;;;;4994252;28;20466;-66
2021/11/16 09:15:37;;;;;;;18.90;11.13;;;6.60;99.90;;;;;;4992209;28;20179;-66
2021/11/16 09:18:36;;;;;;;14.40;10.03;;;6.60;99.90;;;;;;4989206;28;20434;-66
2021/11/16 09:21:08;;;;;;;18.60;12.17;;;6.60;99.90;;;;;;4982438;28;20473;-65
2021/11/16 09:23:40;;;;;;;16.13;11.00;;;6.60;99.90;;;;;;4988430;28;20442;-66
2021/11/16 09:28:59;;;;;;;13.47;9.33;;;6.60;99.90;;;;;;4998404;28;20461;-65
2021/11/16 09:31:37;;;;;;;14.47;9.10;;;6.60;99.90;;;;;;4993173;28;20446;-66
2021/11/16 09:34:05;;;;;;;11.53;8.10;;;6.50;99.90;;;;;;4992513;28;20497;-65
2021/11/16 09:36:36;;;;;;;18.07;9.20;;;6.60;99.90;;;;;;4993670;28;20442;-65
2021/11/16 09:39:08;;;;;;;17.77;9.30;;;6.40;99.90;;;;;;4988936;28;20473;-66
2021/11/16 09:42:01;;;;;;;14.13;9.13;;;6.40;99.90;;;;;;4984700;28;20488;-65
2021/11/16 09:44:28;;;;;;;13.83;8.77;;;6.40;99.90;;;;;;4986058;28;20536;-66
2021/11/16 09:47:04;;;;;;;12.83;8.10;;;6.40;99.90;;;;;;4992715;28;20442;-65
2021/11/16 09:49:41;;;;;;;12.60;9.83;;;6.50;99.90;;;;;;4989823;28;20883;-65
2021/11/16 09:52:13;;;;;;;12.40;7.83;;;6.50;99.90;;;;;;4992152;28;20434;-65
2021/11/16 09:55:09;;;;;;;12.60;8.07;;;6.60;99.90;;;;;;4991667;28;20434;-66
2021/11/16 09:57:39;;;;;;;13.30;9.17;;;6.60;99.90;;;;;;4989137;28;20443;-66
2021/11/16 10:00:27;;;;;;;16.27;10.00;;;6.50;99.90;;;;;;4986577;28;20461;-66
2021/11/16 10:03:07;;;;;;;14.80;9.73;;;6.50;99.90;;;;;;4998380;28;20438;-66
2021/11/16 10:05:39;;;;;;;20.87;9.40;;;6.50;99.90;;;;;;4976329;28;20844;-65
2021/11/16 10:08:07;;;;;;;11.80;7.80;;;6.70;99.90;;;;;;4988367;28;20449;-65
2021/11/16 10:10:36;;;;;;;10.70;7.30;;;6.70;99.90;;;;;;4992095;28;20469;-66
2021/11/16 10:13:07;;;;;;;11.97;7.63;;;6.80;99.90;;;;;;4991919;28;20549;-66
2021/11/16 10:15:36;;;;;;;14.20;7.97;;;6.90;99.90;;;;;;4991358;28;20438;-66
2021/11/16 10:18:03;;;;;;;10.10;7.10;;;6.80;99.90;;;;;;4992920;28;20527;-65
2021/11/16 10:20:31;;;;;;;14.53;7.93;;;6.90;99.90;;;;;;4990679;28;20454;-66
2021/11/16 10:23:00;;;;;;;12.00;8.67;;;7.00;99.90;;;;;;4988696;28;20438;-66
2021/11/16 10:25:29;;;;;;;11.40;7.80;;;6.90;99.90;;;;;;4988299;28;22001;-65
2021/11/16 10:28:05;;;;;;;13.73;8.33;;;6.90;99.90;;;;;;4979989;28;20438;-65
2021/11/16 10:30:32;;;;;;;13.93;8.10;;;7.00;99.90;;;;;;4995449;28;20550;-66
2021/11/16 10:33:13;;;;;;;11.60;7.87;;;7.10;99.90;;;;;;4993588;28;20752;-66
2021/11/16 10:35:52;;;;;;;13.03;8.40;;;7.20;99.90;;;;;;4988380;28;20466;-66
2021/11/16 10:38:30;;;;;;;12.97;7.97;;;7.20;99.90;;;;;;4992669;28;20438;-65
2021/11/16 10:40:57;;;;;;;12.33;7.90;;;7.10;99.90;;;;;;4991603;28;20449;-64
2021/11/16 10:43:30;;;;;;;11.13;7.20;;;7.00;99.90;;;;;;4987499;28;20435;-64
2021/11/16 10:46:00;;;;;;;11.77;7.90;;;7.00;99.90;;;;;;4991051;28;20439;-65
2021/11/16 10:48:27;;;;;;;13.20;8.13;;;7.00;99.90;;;;;;4985139;28;20431;-64
2021/11/16 10:50:53;;;;;;;13.47;7.00;;;7.10;99.90;;;;;;4996045;28;20479;-65
2021/11/16 10:53:21;;;;;;;9.53;6.93;;;7.10;99.90;;;;;;4990944;28;20497;-65
2021/11/16 10:55:53;;;;;;;10.83;8.43;;;7.10;99.90;;;;;;4990937;28;20264;-65
2021/11/16 10:58:40;;;;;;;9.17;7.47;;;7.20;99.90;;;;;;4986867;28;20517;-65
2021/11/16 11:01:12;;;;;;;9.33;6.47;;;7.20;99.90;;;;;;4990493;28;20434;-65
2021/11/16 11:03:44;;;;;;;11.17;7.00;;;7.20;99.90;;;;;;4990214;28;20434;-65
2021/11/16 11:06:14;;;;;;;13.03;7.93;;;7.20;99.90;;;;;;4991085;28;20460;-65
2021/11/16 11:08:45;;;;;;;12.00;8.87;;;7.20;99.90;;;;;;4988243;28;20465;-64
2021/11/16 11:11:29;;;;;;;14.60;8.57;;;7.30;99.90;;;;;;4990899;28;20450;-64
2021/11/16 11:14:01;;;;;;;10.67;7.50;;;7.10;99.90;;;;;;4981092;28;20463;-64
2021/11/16 11:16:28;;;;;;;13.10;7.70;;;6.80;99.90;;;;;;4993870;28;20431;-65
2021/11/16 11:18:55;;;;;;;12.47;6.97;;;6.70;99.90;;;;;;4988094;28;20457;-65
2021/11/16 11:21:41;;;;;;;7.87;4.97;;;6.70;99.90;;;;;;4985983;28;20435;-65
2021/11/16 11:24:17;;;;;;;7.73;6.20;;;6.70;99.90;;;;;;4988587;28;20435;-65
2021/11/16 11:26:46;;;;;;;11.43;7.70;;;6.70;99.90;;;;;;4994179;28;20444;-65
2021/11/16 11:29:51;;;;;;;14.87;6.77;;;6.70;99.90;;;;;;4989854;28;20458;-65
2021/11/16 11:32:22;;;;;;;14.43;6.67;;;6.60;99.90;;;;;;4993699;28;20434;-65
2021/11/16 11:35:00;;;;;;;9.00;5.70;;;6.60;99.90;;;;;;4995728;28;20474;-67
2021/11/16 11:37:37;;;;;;;8.73;6.93;;;6.70;99.90;;;;;;4990005;28;20430;-65
2021/11/16 11:40:06;;;;;;;9.50;6.37;;;6.70;99.90;;;;;;4990444;28;20771;-65
2021/11/16 11:42:38;;;;;;;7.40;5.43;;;6.70;99.90;;;;;;4995565;28;20462;-67
2021/11/16 11:45:23;;;;;;;8.73;6.40;;;6.80;99.90;;;;;;4996625;28;20449;-65
2021/11/16 11:48:05;;;;;;;9.00;6.47;;;6.80;99.90;;;;;;4988742;28;20431;-66
2021/11/16 11:50:35;;;;;;;10.07;6.70;;;6.80;99.90;;;;;;4991813;28;20992;-66
2021/11/16 11:53:06;;;;;;;7.50;5.77;;;6.80;99.90;;;;;;4992645;28;20901;-67
2021/11/16 11:55:35;;;;;;;10.63;7.03;;;6.80;99.90;;;;;;4991824;28;20438;-67
2021/11/16 11:58:05;;;;;;;9.63;6.50;;;6.80;99.90;;;;;;4990379;28;20505;-66
2021/11/16 12:00:32;;;;;;;20.30;7.33;;;6.80;99.90;;;;;;4991304;28;20462;-66
2021/11/16 12:02:58;;;;;;;8.63;6.57;;;6.80;99.90;;;;;;4989481;28;20439;-66
2021/11/16 12:05:32;;;;;;;12.77;7.43;;;6.90;99.90;;;;;;4980162;28;20787;-66
2021/11/16 12:07:58;;;;;;;9.97;7.17;;;6.90;99.90;;;;;;4978877;28;20431;-70
2021/11/16 12:10:24;;;;;;;19.17;7.47;;;7.10;99.90;;;;;;4991733;28;20545;-66
2021/11/16 12:12:52;;;;;;;13.50;8.67;;;7.00;99.90;;;;;;4983356;28;20827;-66
2021/11/16 12:15:34;;;;;;;11.50;6.80;;;7.00;99.90;;;;;;4984817;28;20473;-66
2021/11/16 12:18:01;;;;;;;9.53;6.80;;;7.00;99.90;;;;;;4986361;28;20521;-66
2021/11/16 12:20:35;;;;;;;11.50;8.40;;;7.00;99.90;;;;;;4989396;28;20501;-66
2021/11/16 12:23:03;;;;;;;9.50;6.57;;;7.00;99.90;;;;;;4995638;28;20445;-66
2021/11/16 12:25:29;;;;;;;9.10;6.40;;;7.00;99.90;;;;;;4990076;28;20431;-66
2021/11/16 12:27:55;;;;;;;11.10;8.37;;;7.10;99.90;;;;;;4988062;28;20444;-66
2021/11/16 12:30:34;;;;;;;9.70;7.60;;;7.30;99.90;;;;;;4988441;28;20457;-66
2021/11/16 12:33:01;;;;;;;10.63;7.73;;;7.20;99.90;;;;;;4983067;28;20924;-65
2021/11/16 12:35:26;;;;;;;10.23;7.07;;;7.30;99.90;;;;;;4988975;28;20422;-66
2021/11/16 12:37:55;;;;;;;8.83;6.40;;;7.30;99.90;;;;;;4985952;28;20946;-66
2021/11/16 12:40:23;;;;;;;9.50;6.33;;;7.20;99.90;;;;;;4984769;28;20217;-66
2021/11/16 12:43:07;;;;;;;9.87;7.50;;;7.20;99.90;;;;;;4990208;28;20437;-66
2021/11/16 12:45:56;;;;;;;8.50;7.00;;;7.30;99.90;;;;;;4988784;28;20438;-66
2021/11/16 12:48:42;;;;;;;11.87;7.83;;;7.30;99.90;;;;;;4994295;28;20418;-66
2021/11/16 12:51:13;;;;;;;10.00;7.00;;;7.30;99.90;;;;;;4988034;28;20516;-66
2021/11/16 12:53:59;;;;;;;11.90;7.97;;;7.30;99.90;;;;;;4994427;28;20547;-66
2021/11/16 12:56:49;;;;;;;9.20;7.20;;;7.40;99.90;;;;;;4988531;28;20468;-66
2021/11/16 12:59:21;;;;;;;10.53;7.10;;;7.40;99.90;;;;;;4984873;28;20509;-66
2021/11/16 13:02:00;;;;;;;11.93;7.40;;;7.40;99.90;;;;;;4986192;28;21192;-66
2021/11/16 13:04:49;;;;;;;12.50;9.50;;;7.50;99.90;;;;;;4987856;28;20430;-66
2021/11/16 13:07:33;;;;;;;12.43;9.57;;;7.60;99.90;;;;;;4998926;28;20429;-66
2021/11/16 13:10:02;;;;;;;10.60;8.70;;;7.60;99.90;;;;;;4981651;28;20910;-66